sensor_id;sensor_type;location;lat;lon;timestamp;temperature;humidity
18073;DHT22;9161;47.348;9.648;2024-02-21T00:02:39;1.90;99.90
18073;DHT22;9161;47.348;9.648;2024-02-21T00:07:41;2.00;99.90
18073;DHT22;9161;47.348;9.648;2024-02-21T00:12:44;2.00;99.90
18073;DHT22;9161;47.348;9.648;2024-02-21T00:17:47;2.10;99.90
18073;DHT22;9161;47.348;9.648;2024-02-21T00:22:50;2.00;99.90
18073;DHT22;9161;47.348;9.648;2024-02-21T00:27:54;2.00;99.90
18073;DHT22;9161;47.348;9.648;2024-02-21T00:32:56;2.10;99.90
18073;DHT22;9161;47.348;9.648;2024-02-21T00:37:58;2.70;99.90
18073;DHT22;9161;47.348;9.648;2024-02-21T00:43:04;2.40;99.90
18073;DHT22;9161;47.348;9.648;2024-02-21T00:48:07;2.50;99.90
18073;DHT22;9161;47.348;9.648;2024-02-21T00:53:09;2.30;99.90
18073;DHT22;9161;47.348;9.648;2024-02-21T00:58:12;2.40;99.90
18073;DHT22;9161;47.348;9.648;2024-02-21T01:03:15;2.50;99.90
18073;DHT22;9161;47.348;9.648;2024-02-21T01:08:17;2.60;99.90
18073;DHT22;9161;47.348;9.648;2024-02-21T01:13:20;2.30;99.90
18073;DHT22;9161;47.348;9.648;2024-02-21T01:18:23;2.10;99.90
18073;DHT22;9161;47.348;9.648;2024-02-21T01:23:25;2.10;99.90
18073;DHT22;9161;47.348;9.648;2024-02-21T01:28:29;2.20;99.90
18073;DHT22;9161;47.348;9.648;2024-02-21T01:33:31;1.90;99.90
18073;DHT22;9161;47.348;9.648;2024-02-21T01:38:35;1.80;99.90
18073;DHT22;9161;47.348;9.648;2024-02-21T01:43:40;1.90;99.90
18073;DHT22;9161;47.348;9.648;2024-02-21T01:48:42;1.90;99.90
18073;DHT22;9161;47.348;9.648;2024-02-21T01:53:46;1.90;99.90
18073;DHT22;9161;47.348;9.648;2024-02-21T01:58:51;2.10;99.90
18073;DHT22;9161;47.348;9.648;2024-02-21T02:03:54;2.00;99.90
18073;DHT22;9161;47.348;9.648;2024-02-21T02:08:57;1.70;99.90
18073;DHT22;9161;47.348;9.648;2024-02-21T02:14:00;1.60;99.90
18073;DHT22;9161;47.348;9.648;2024-02-21T02:19:02;1.50;99.90
18073;DHT22;9161;47.348;9.648;2024-02-21T02:24:07;1.50;99.90
18073;DHT22;9161;47.348;9.648;2024-02-21T02:29:09;1.30;99.90
18073;DHT22;9161;47.348;9.648;2024-02-21T02:34:11;1.30;99.90
18073;DHT22;9161;47.348;9.648;2024-02-21T02:39:15;1.40;99.90
18073;DHT22;9161;47.348;9.648;2024-02-21T02:44:17;1.60;99.90
18073;DHT22;9161;47.348;9.648;2024-02-21T02:49:19;1.50;99.90
18073;DHT22;9161;47.348;9.648;2024-02-21T02:54:23;1.30;99.90
18073;DHT22;9161;47.348;9.648;2024-02-21T02:59:25;1.90;99.90
18073;DHT22;9161;47.348;9.648;2024-02-21T03:04:27;1.80;99.90
18073;DHT22;9161;47.348;9.648;2024-02-21T03:09:31;1.90;99.90
18073;DHT22;9161;47.348;9.648;2024-02-21T03:14:33;2.00;99.90
18073;DHT22;9161;47.348;9.648;2024-02-21T03:19:35;2.10;99.90
18073;DHT22;9161;47.348;9.648;2024-02-21T03:24:39;3.50;99.90
18073;DHT22;9161;47.348;9.648;2024-02-21T03:29:41;4.20;99.90
18073;DHT22;9161;47.348;9.648;2024-02-21T03:34:44;4.60;99.90
18073;DHT22;9161;47.348;9.648;2024-02-21T03:39:47;4.50;99.90
18073;DHT22;9161;47.348;9.648;2024-02-21T03:44:49;4.10;99.90
18073;DHT22;9161;47.348;9.648;2024-02-21T03:49:51;3.60;99.90
18073;DHT22;9161;47.348;9.648;2024-02-21T03:54:55;3.20;99.90
18073;DHT22;9161;47.348;9.648;2024-02-21T03:59:57;2.90;99.90
18073;DHT22;9161;47.348;9.648;2024-02-21T04:04:59;3.20;99.90
18073;DHT22;9161;47.348;9.648;2024-02-21T04:10:03;4.00;99.90
18073;DHT22;9161;47.348;9.648;2024-02-21T04:15:05;4.00;99.90
18073;DHT22;9161;47.348;9.648;2024-02-21T04:20:14;4.10;99.90
18073;DHT22;9161;47.348;9.648;2024-02-21T04:25:18;4.10;99.90
18073;DHT22;9161;47.348;9.648;2024-02-21T04:30:21;4.00;99.90
18073;DHT22;9161;47.348;9.648;2024-02-21T04:35:23;4.00;99.90
18073;DHT22;9161;47.348;9.648;2024-02-21T04:40:26;4.10;99.90
18073;DHT22;9161;47.348;9.648;2024-02-21T04:45:28;3.70;99.90
18073;DHT22;9161;47.348;9.648;2024-02-21T04:50:30;3.50;99.90
18073;DHT22;9161;47.348;9.648;2024-02-21T04:55:33;3.40;99.90
18073;DHT22;9161;47.348;9.648;2024-02-21T05:00:36;4.00;99.90
18073;DHT22;9161;47.348;9.648;2024-02-21T05:05:38;4.50;99.90
18073;DHT22;9161;47.348;9.648;2024-02-21T05:10:41;4.40;99.90
18073;DHT22;9161;47.348;9.648;2024-02-21T05:15:44;4.50;99.90
18073;DHT22;9161;47.348;9.648;2024-02-21T05:20:46;4.40;99.90
18073;DHT22;9161;47.348;9.648;2024-02-21T05:25:49;4.30;99.90
18073;DHT22;9161;47.348;9.648;2024-02-21T05:30:51;4.10;99.90
18073;DHT22;9161;47.348;9.648;2024-02-21T05:35:54;4.20;99.90
18073;DHT22;9161;47.348;9.648;2024-02-21T05:40:58;4.30;99.90
18073;DHT22;9161;47.348;9.648;2024-02-21T05:46:00;4.30;99.90
18073;DHT22;9161;47.348;9.648;2024-02-21T05:51:03;4.30;99.90
18073;DHT22;9161;47.348;9.648;2024-02-21T05:56:10;4.60;99.90
18073;DHT22;9161;47.348;9.648;2024-02-21T06:01:12;4.90;99.90
18073;DHT22;9161;47.348;9.648;2024-02-21T06:06:14;5.10;99.90
18073;DHT22;9161;47.348;9.648;2024-02-21T06:11:18;5.20;99.90
18073;DHT22;9161;47.348;9.648;2024-02-21T06:16:20;5.30;99.90
18073;DHT22;9161;47.348;9.648;2024-02-21T06:21:22;5.20;99.90
18073;DHT22;9161;47.348;9.648;2024-02-21T06:26:26;5.20;99.90
18073;DHT22;9161;47.348;9.648;2024-02-21T06:31:28;5.20;99.90
18073;DHT22;9161;47.348;9.648;2024-02-21T06:36:32;5.20;99.90
18073;DHT22;9161;47.348;9.648;2024-02-21T06:41:35;5.30;99.90
18073;DHT22;9161;47.348;9.648;2024-02-21T06:46:37;5.20;99.90
18073;DHT22;9161;47.348;9.648;2024-02-21T06:51:40;5.20;99.90
18073;DHT22;9161;47.348;9.648;2024-02-21T06:56:43;5.20;99.90
18073;DHT22;9161;47.348;9.648;2024-02-21T07:01:45;5.20;99.90
18073;DHT22;9161;47.348;9.648;2024-02-21T07:06:48;5.20;99.90
18073;DHT22;9161;47.348;9.648;2024-02-21T07:11:52;5.20;99.90
18073;DHT22;9161;47.348;9.648;2024-02-21T07:16:54;5.10;99.90
18073;DHT22;9161;47.348;9.648;2024-02-21T07:21:58;5.10;99.90
18073;DHT22;9161;47.348;9.648;2024-02-21T07:27:02;5.40;99.90
18073;DHT22;9161;47.348;9.648;2024-02-21T07:32:05;5.70;99.90
18073;DHT22;9161;47.348;9.648;2024-02-21T07:37:08;5.70;99.90
18073;DHT22;9161;47.348;9.648;2024-02-21T07:42:11;5.70;99.90
18073;DHT22;9161;47.348;9.648;2024-02-21T07:47:13;5.60;99.90
18073;DHT22;9161;47.348;9.648;2024-02-21T07:52:16;5.50;99.90
18073;DHT22;9161;47.348;9.648;2024-02-21T07:57:22;5.60;99.90
18073;DHT22;9161;47.348;9.648;2024-02-21T08:02:24;5.90;99.90
18073;DHT22;9161;47.348;9.648;2024-02-21T08:07:26;6.90;99.90
18073;DHT22;9161;47.348;9.648;2024-02-21T08:12:31;7.30;99.90
18073;DHT22;9161;47.348;9.648;2024-02-21T08:17:34;7.60;99.90
18073;DHT22;9161;47.348;9.648;2024-02-21T08:22:37;7.70;99.90
18073;DHT22;9161;47.348;9.648;2024-02-21T08:27:41;7.40;99.90
18073;DHT22;9161;47.348;9.648;2024-02-21T08:32:43;7.70;99.90
18073;DHT22;9161;47.348;9.648;2024-02-21T08:37:46;8.90;99.90
18073;DHT22;9161;47.348;9.648;2024-02-21T08:42:50;9.80;99.90
18073;DHT22;9161;47.348;9.648;2024-02-21T08:47:52;10.30;99.90
18073;DHT22;9161;47.348;9.648;2024-02-21T08:52:54;9.50;99.90
18073;DHT22;9161;47.348;9.648;2024-02-21T08:57:59;8.80;99.90
18073;DHT22;9161;47.348;9.648;2024-02-21T09:03:02;9.10;99.90
18073;DHT22;9161;47.348;9.648;2024-02-21T09:08:05;9.00;99.90
18073;DHT22;9161;47.348;9.648;2024-02-21T09:13:08;9.30;99.90
18073;DHT22;9161;47.348;9.648;2024-02-21T09:18:10;10.80;99.90
18073;DHT22;9161;47.348;9.648;2024-02-21T09:23:13;12.30;99.90
18073;DHT22;9161;47.348;9.648;2024-02-21T09:28:16;13.40;99.90
18073;DHT22;9161;47.348;9.648;2024-02-21T09:33:18;14.50;99.90
18073;DHT22;9161;47.348;9.648;2024-02-21T09:38:31;14.70;99.90
18073;DHT22;9161;47.348;9.648;2024-02-21T09:43:35;14.50;99.90
18073;DHT22;9161;47.348;9.648;2024-02-21T09:48:45;14.00;99.90
18073;DHT22;9161;47.348;9.648;2024-02-21T09:53:55;12.90;99.90
18073;DHT22;9161;47.348;9.648;2024-02-21T09:59:16;13.10;99.90
18073;DHT22;9161;47.348;9.648;2024-02-21T10:04:20;13.40;99.90
18073;DHT22;9161;47.348;9.648;2024-02-21T10:09:24;13.60;99.90
18073;DHT22;9161;47.348;9.648;2024-02-21T10:14:31;13.00;99.90
18073;DHT22;9161;47.348;9.648;2024-02-21T10:19:32;12.60;99.90
18073;DHT22;9161;47.348;9.648;2024-02-21T10:24:35;13.30;99.90
18073;DHT22;9161;47.348;9.648;2024-02-21T10:29:40;14.10;99.90
18073;DHT22;9161;47.348;9.648;2024-02-21T10:34:43;15.30;99.90
18073;DHT22;9161;47.348;9.648;2024-02-21T10:39:46;16.00;99.90
18073;DHT22;9161;47.348;9.648;2024-02-21T10:44:51;16.90;99.90
18073;DHT22;9161;47.348;9.648;2024-02-21T10:49:59;17.90;99.90
18073;DHT22;9161;47.348;9.648;2024-02-21T10:55:10;18.30;99.90
18073;DHT22;9161;47.348;9.648;2024-02-21T11:00:15;19.30;98.90
18073;DHT22;9161;47.348;9.648;2024-02-21T11:05:19;19.80;96.20
18073;DHT22;9161;47.348;9.648;2024-02-21T11:10:23;19.90;98.10
18073;DHT22;9161;47.348;9.648;2024-02-21T11:15:28;19.70;97.10
18073;DHT22;9161;47.348;9.648;2024-02-21T11:20:34;20.20;95.00
18073;DHT22;9161;47.348;9.648;2024-02-21T11:25:36;20.60;95.40
18073;DHT22;9161;47.348;9.648;2024-02-21T11:30:40;20.40;94.20
18073;DHT22;9161;47.348;9.648;2024-02-21T11:35:44;20.60;93.10
18073;DHT22;9161;47.348;9.648;2024-02-21T11:40:48;20.60;93.30
18073;DHT22;9161;47.348;9.648;2024-02-21T11:45:58;20.70;92.70
18073;DHT22;9161;47.348;9.648;2024-02-21T11:51:01;20.40;96.20
18073;DHT22;9161;47.348;9.648;2024-02-21T11:56:04;20.20;97.70
18073;DHT22;9161;47.348;9.648;2024-02-21T12:01:09;19.60;97.50
18073;DHT22;9161;47.348;9.648;2024-02-21T12:06:11;19.60;97.70
18073;DHT22;9161;47.348;9.648;2024-02-21T12:11:19;19.10;98.10
18073;DHT22;9161;47.348;9.648;2024-02-21T12:16:23;19.40;97.90
18073;DHT22;9161;47.348;9.648;2024-02-21T12:21:25;19.60;97.40
18073;DHT22;9161;47.348;9.648;2024-02-21T12:26:29;19.60;97.10
18073;DHT22;9161;47.348;9.648;2024-02-21T12:31:32;19.70;96.90
18073;DHT22;9161;47.348;9.648;2024-02-21T12:36:40;20.00;98.10
18073;DHT22;9161;47.348;9.648;2024-02-21T12:41:42;19.80;96.70
18073;DHT22;9161;47.348;9.648;2024-02-21T12:46:46;20.20;97.70
18073;DHT22;9161;47.348;9.648;2024-02-21T12:51:52;21.00;95.70
18073;DHT22;9161;47.348;9.648;2024-02-21T12:56:54;21.70;96.20
18073;DHT22;9161;47.348;9.648;2024-02-21T13:01:57;21.60;95.50
18073;DHT22;9161;47.348;9.648;2024-02-21T13:07:00;21.40;95.20
18073;DHT22;9161;47.348;9.648;2024-02-21T13:12:02;21.00;95.60
18073;DHT22;9161;47.348;9.648;2024-02-21T13:17:06;21.00;96.60
18073;DHT22;9161;47.348;9.648;2024-02-21T13:22:08;21.20;95.60
18073;DHT22;9161;47.348;9.648;2024-02-21T13:27:10;20.60;96.20
18073;DHT22;9161;47.348;9.648;2024-02-21T13:32:14;20.30;97.00
18073;DHT22;9161;47.348;9.648;2024-02-21T13:37:17;20.30;95.80
18073;DHT22;9161;47.348;9.648;2024-02-21T13:42:20;19.30;97.10
18073;DHT22;9161;47.348;9.648;2024-02-21T13:47:23;18.00;97.70
18073;DHT22;9161;47.348;9.648;2024-02-21T13:52:25;17.90;98.20
18073;DHT22;9161;47.348;9.648;2024-02-21T13:57:28;18.60;98.30
18073;DHT22;9161;47.348;9.648;2024-02-21T14:02:31;18.50;98.70
18073;DHT22;9161;47.348;9.648;2024-02-21T14:07:34;19.30;98.20
18073;DHT22;9161;47.348;9.648;2024-02-21T14:12:36;18.70;97.20
18073;DHT22;9161;47.348;9.648;2024-02-21T14:17:40;17.90;97.70
18073;DHT22;9161;47.348;9.648;2024-02-21T14:22:42;17.60;97.90
18073;DHT22;9161;47.348;9.648;2024-02-21T14:27:45;17.70;98.00
18073;DHT22;9161;47.348;9.648;2024-02-21T14:32:48;17.80;97.20
18073;DHT22;9161;47.348;9.648;2024-02-21T14:37:52;17.40;97.90
18073;DHT22;9161;47.348;9.648;2024-02-21T14:42:56;17.30;97.60
18073;DHT22;9161;47.348;9.648;2024-02-21T14:47:59;15.60;97.60
18073;DHT22;9161;47.348;9.648;2024-02-21T14:53:02;15.30;99.90
18073;DHT22;9161;47.348;9.648;2024-02-21T14:58:06;15.80;99.30
18073;DHT22;9161;47.348;9.648;2024-02-21T15:03:10;16.00;99.10
18073;DHT22;9161;47.348;9.648;2024-02-21T15:08:12;16.10;99.30
18073;DHT22;9161;47.348;9.648;2024-02-21T15:13:18;16.50;98.90
18073;DHT22;9161;47.348;9.648;2024-02-21T15:18:21;16.10;99.40
18073;DHT22;9161;47.348;9.648;2024-02-21T15:23:24;15.80;99.90
18073;DHT22;9161;47.348;9.648;2024-02-21T15:28:26;15.40;99.70
18073;DHT22;9161;47.348;9.648;2024-02-21T15:33:31;15.00;99.90
18073;DHT22;9161;47.348;9.648;2024-02-21T15:38:37;14.40;99.90
18073;DHT22;9161;47.348;9.648;2024-02-21T15:43:39;14.00;99.90
18073;DHT22;9161;47.348;9.648;2024-02-21T15:48:43;13.60;99.90
18073;DHT22;9161;47.348;9.648;2024-02-21T15:53:47;13.20;99.90
18073;DHT22;9161;47.348;9.648;2024-02-21T15:58:49;12.90;99.90
18073;DHT22;9161;47.348;9.648;2024-02-21T16:03:53;12.60;99.90
18073;DHT22;9161;47.348;9.648;2024-02-21T16:08:56;12.40;99.90
18073;DHT22;9161;47.348;9.648;2024-02-21T16:14:01;12.00;99.90
18073;DHT22;9161;47.348;9.648;2024-02-21T16:19:05;11.80;99.90
18073;DHT22;9161;47.348;9.648;2024-02-21T16:24:08;11.50;99.90
18073;DHT22;9161;47.348;9.648;2024-02-21T16:29:10;11.30;99.90
18073;DHT22;9161;47.348;9.648;2024-02-21T16:34:16;11.00;99.90
18073;DHT22;9161;47.348;9.648;2024-02-21T16:39:18;10.70;99.90
18073;DHT22;9161;47.348;9.648;2024-02-21T16:44:21;10.30;99.90
18073;DHT22;9161;47.348;9.648;2024-02-21T16:49:25;9.90;99.90
18073;DHT22;9161;47.348;9.648;2024-02-21T16:54:27;9.70;99.90
18073;DHT22;9161;47.348;9.648;2024-02-21T16:59:29;9.60;99.90
18073;DHT22;9161;47.348;9.648;2024-02-21T17:04:33;9.50;99.90
18073;DHT22;9161;47.348;9.648;2024-02-21T17:09:35;9.40;99.90
18073;DHT22;9161;47.348;9.648;2024-02-21T17:14:39;9.50;99.90
18073;DHT22;9161;47.348;9.648;2024-02-21T17:19:44;9.40;99.90
18073;DHT22;9161;47.348;9.648;2024-02-21T17:24:46;9.40;99.90
18073;DHT22;9161;47.348;9.648;2024-02-21T17:29:49;9.30;99.90
18073;DHT22;9161;47.348;9.648;2024-02-21T17:34:52;9.30;99.90
18073;DHT22;9161;47.348;9.648;2024-02-21T17:39:54;9.20;99.90
18073;DHT22;9161;47.348;9.648;2024-02-21T17:44:56;9.20;99.90
18073;DHT22;9161;47.348;9.648;2024-02-21T17:50:01;9.20;99.90
18073;DHT22;9161;47.348;9.648;2024-02-21T17:55:04;9.20;99.90
18073;DHT22;9161;47.348;9.648;2024-02-21T18:00:07;9.20;99.90
18073;DHT22;9161;47.348;9.648;2024-02-21T18:05:11;9.10;99.90
18073;DHT22;9161;47.348;9.648;2024-02-21T18:10:14;9.20;99.90
18073;DHT22;9161;47.348;9.648;2024-02-21T18:15:16;9.20;99.90
18073;DHT22;9161;47.348;9.648;2024-02-21T18:20:19;9.10;99.90
18073;DHT22;9161;47.348;9.648;2024-02-21T18:25:22;9.00;99.90
18073;DHT22;9161;47.348;9.648;2024-02-21T18:30:26;9.00;99.90
18073;DHT22;9161;47.348;9.648;2024-02-21T18:35:30;8.90;99.90
18073;DHT22;9161;47.348;9.648;2024-02-21T18:40:33;8.80;99.90
18073;DHT22;9161;47.348;9.648;2024-02-21T18:45:36;8.80;99.90
18073;DHT22;9161;47.348;9.648;2024-02-21T18:50:42;8.70;99.90
18073;DHT22;9161;47.348;9.648;2024-02-21T18:55:47;8.90;99.90
18073;DHT22;9161;47.348;9.648;2024-02-21T19:00:49;8.90;99.90
18073;DHT22;9161;47.348;9.648;2024-02-21T19:05:53;8.90;99.90
18073;DHT22;9161;47.348;9.648;2024-02-21T19:10:56;8.80;99.90
18073;DHT22;9161;47.348;9.648;2024-02-21T19:15:59;8.90;99.90
18073;DHT22;9161;47.348;9.648;2024-02-21T19:21:04;8.80;99.90
18073;DHT22;9161;47.348;9.648;2024-02-21T19:26:08;8.80;99.90
18073;DHT22;9161;47.348;9.648;2024-02-21T19:31:11;8.80;99.90
18073;DHT22;9161;47.348;9.648;2024-02-21T19:36:16;8.80;99.90
18073;DHT22;9161;47.348;9.648;2024-02-21T19:41:21;8.90;99.90
18073;DHT22;9161;47.348;9.648;2024-02-21T19:46:24;9.10;99.90
18073;DHT22;9161;47.348;9.648;2024-02-21T19:51:29;9.20;99.90
18073;DHT22;9161;47.348;9.648;2024-02-21T19:56:32;9.20;99.90
18073;DHT22;9161;47.348;9.648;2024-02-21T20:01:35;9.00;99.90
18073;DHT22;9161;47.348;9.648;2024-02-21T20:06:39;8.90;99.90
18073;DHT22;9161;47.348;9.648;2024-02-21T20:11:43;9.10;99.90
18073;DHT22;9161;47.348;9.648;2024-02-21T20:16:50;9.20;99.90
18073;DHT22;9161;47.348;9.648;2024-02-21T20:21:57;9.10;99.90
18073;DHT22;9161;47.348;9.648;2024-02-21T20:27:01;9.10;99.90
18073;DHT22;9161;47.348;9.648;2024-02-21T20:32:05;9.10;99.90
18073;DHT22;9161;47.348;9.648;2024-02-21T20:37:10;9.00;99.90
18073;DHT22;9161;47.348;9.648;2024-02-21T20:42:12;9.20;99.90
18073;DHT22;9161;47.348;9.648;2024-02-21T20:53:40;9.10;99.90
18073;DHT22;9161;47.348;9.648;2024-02-21T20:58:43;8.90;99.90
18073;DHT22;9161;47.348;9.648;2024-02-21T21:03:46;8.90;99.90
18073;DHT22;9161;47.348;9.648;2024-02-21T21:08:51;8.80;99.90
18073;DHT22;9161;47.348;9.648;2024-02-21T21:13:53;8.70;99.90
18073;DHT22;9161;47.348;9.648;2024-02-21T21:18:56;8.60;99.90
18073;DHT22;9161;47.348;9.648;2024-02-21T21:24:01;8.60;99.90
18073;DHT22;9161;47.348;9.648;2024-02-21T21:29:03;8.60;99.90
18073;DHT22;9161;47.348;9.648;2024-02-21T21:34:07;8.70;99.90
18073;DHT22;9161;47.348;9.648;2024-02-21T21:39:12;8.60;99.90
18073;DHT22;9161;47.348;9.648;2024-02-21T21:44:17;8.60;99.90
18073;DHT22;9161;47.348;9.648;2024-02-21T21:49:20;8.70;99.90
18073;DHT22;9161;47.348;9.648;2024-02-21T21:54:26;8.70;99.90
18073;DHT22;9161;47.348;9.648;2024-02-21T21:59:30;8.60;99.90
18073;DHT22;9161;47.348;9.648;2024-02-21T22:04:32;8.60;99.90
18073;DHT22;9161;47.348;9.648;2024-02-21T22:09:37;8.50;99.90
18073;DHT22;9161;47.348;9.648;2024-02-21T22:14:39;8.50;99.90
18073;DHT22;9161;47.348;9.648;2024-02-21T22:19:44;8.60;99.90
18073;DHT22;9161;47.348;9.648;2024-02-21T22:24:48;8.50;99.90
18073;DHT22;9161;47.348;9.648;2024-02-21T22:29:50;8.50;99.90
18073;DHT22;9161;47.348;9.648;2024-02-21T22:34:53;8.40;99.90
18073;DHT22;9161;47.348;9.648;2024-02-21T22:39:58;8.40;99.90
18073;DHT22;9161;47.348;9.648;2024-02-21T22:45:01;8.40;99.90
18073;DHT22;9161;47.348;9.648;2024-02-21T22:50:04;8.30;99.90
18073;DHT22;9161;47.348;9.648;2024-02-21T22:55:09;8.20;99.90
18073;DHT22;9161;47.348;9.648;2024-02-21T23:00:13;8.20;99.90
18073;DHT22;9161;47.348;9.648;2024-02-21T23:05:17;8.20;99.90
18073;DHT22;9161;47.348;9.648;2024-02-21T23:10:24;8.20;99.90
18073;DHT22;9161;47.348;9.648;2024-02-21T23:15:27;8.10;99.90
18073;DHT22;9161;47.348;9.648;2024-02-21T23:20:30;8.20;99.90
18073;DHT22;9161;47.348;9.648;2024-02-21T23:25:37;8.20;99.90
18073;DHT22;9161;47.348;9.648;2024-02-21T23:30:40;8.20;99.90
18073;DHT22;9161;47.348;9.648;2024-02-21T23:35:43;8.30;99.90
18073;DHT22;9161;47.348;9.648;2024-02-21T23:40:47;8.40;99.90
18073;DHT22;9161;47.348;9.648;2024-02-21T23:45:49;9.00;99.90
18073;DHT22;9161;47.348;9.648;2024-02-21T23:50:52;10.00;99.90
18073;DHT22;9161;47.348;9.648;2024-02-21T23:55:56;10.40;99.90
